Time;durP1;ratioP1;P1;durP2;ratioP2;P2;SDS_P1;SDS_P2;PMS_P1;PMS_P2;Temp;Humidity;BMP_temperature;BMP_pressure;BME280_temperature;BME280_humidity;BME280_pressure;Samples;Min_cycle;Max_cycle;Signal;HPM_P1;HPM_P2
2022/04/15 00:02:38;;;;;;;10.85;7.00;;;15.40;99.90;;;;;;5076265;28;20052;-76
2022/04/15 00:05:54;;;;;;;12.88;6.85;;;15.40;99.90;;;;;;5073850;28;20409;-76
2022/04/15 00:07:53;;;;;;;10.00;7.15;;;15.40;99.90;;;;;;5060011;28;20146;-77
2022/04/15 00:10:22;;;;;;;10.50;7.18;;;15.30;99.90;;;;;;5057489;28;20542;-76
2022/04/15 00:12:53;;;;;;;15.73;8.18;;;15.30;99.90;;;;;;5057598;28;20396;-76
2022/04/15 00:15:21;;;;;;;12.60;7.78;;;15.40;99.90;;;;;;5074372;28;20052;-76
2022/04/15 00:17:49;;;;;;;7.60;5.95;;;15.40;99.90;;;;;;5057939;28;20047;-76
2022/04/15 00:20:17;;;;;;;11.95;6.63;;;15.40;99.90;;;;;;5074061;28;20036;-75
2022/04/15 00:22:44;;;;;;;9.13;7.40;;;15.40;99.90;;;;;;5073911;28;20197;-76
2022/04/15 00:25:12;;;;;;;10.77;6.35;;;15.40;99.90;;;;;;5074150;28;20054;-75
2022/04/15 00:27:40;;;;;;;11.57;7.20;;;15.40;99.90;;;;;;5057215;28;20040;-76
2022/04/15 00:30:09;;;;;;;8.57;6.53;;;15.40;99.90;;;;;;5073561;28;20451;-76
2022/04/15 00:32:37;;;;;;;7.43;5.95;;;15.40;99.90;;;;;;5091751;28;20048;-75
2022/04/15 00:35:05;;;;;;;8.98;6.13;;;15.50;99.90;;;;;;5056178;28;20129;-76
2022/04/15 00:37:33;;;;;;;7.88;6.03;;;15.40;99.90;;;;;;5056678;28;20502;-75
2022/04/15 00:40:02;;;;;;;9.02;6.18;;;15.40;99.90;;;;;;5073428;28;20032;-76
2022/04/15 00:42:30;;;;;;;7.38;5.18;;;15.40;99.90;;;;;;5073465;28;20506;-76
2022/04/15 00:45:00;;;;;;;9.65;6.25;;;15.30;99.90;;;;;;5056895;28;20598;-76
2022/04/15 00:47:37;;;;;;;8.60;6.35;;;15.30;99.90;;;;;;5072996;28;20050;-76
2022/04/15 00:50:05;;;;;;;9.38;5.95;;;15.20;99.90;;;;;;5055593;28;20062;-76
2022/04/15 00:52:38;;;;;;;8.20;5.85;;;15.20;99.90;;;;;;5039964;28;20140;-76
2022/04/15 00:55:06;;;;;;;8.88;5.78;;;15.10;99.90;;;;;;5072858;28;20044;-76
2022/04/15 00:57:36;;;;;;;10.40;5.78;;;15.10;99.90;;;;;;5056034;28;20043;-77
2022/04/15 01:00:05;;;;;;;8.57;6.45;;;15.10;99.90;;;;;;5056700;28;20359;-77
2022/04/15 01:02:34;;;;;;;7.22;5.43;;;15.10;99.90;;;;;;5072738;28;20046;-78
2022/04/15 01:05:04;;;;;;;11.07;5.57;;;15.10;99.80;;;;;;5036556;28;20063;-76
2022/04/15 01:07:36;;;;;;;9.07;5.07;;;15.10;99.70;;;;;;5069741;28;20585;-77
2022/04/15 01:10:06;;;;;;;7.93;5.55;;;15.10;99.50;;;;;;5069779;28;20055;-76
2022/04/15 01:12:37;;;;;;;6.78;4.55;;;15.10;99.30;;;;;;5069741;28;20080;-77
2022/04/15 01:15:08;;;;;;;8.27;4.63;;;15.20;99.20;;;;;;5053003;28;20102;-79
2022/04/15 01:17:37;;;;;;;7.68;4.55;;;15.20;99.10;;;;;;5072671;28;20405;-77
2022/04/15 01:20:09;;;;;;;6.38;4.60;;;15.20;99.10;;;;;;5072653;28;20142;-76
2022/04/15 01:22:38;;;;;;;7.50;5.18;;;15.20;99.10;;;;;;5072759;28;20052;-76
2022/04/15 01:25:07;;;;;;;8.70;5.07;;;15.20;99.00;;;;;;5073210;28;20052;-77
2022/04/15 01:27:35;;;;;;;8.55;5.15;;;15.20;99.00;;;;;;5073302;28;20075;-76
2022/04/15 01:30:11;;;;;;;9.52;5.95;;;15.20;98.90;;;;;;5073340;28;20126;-76
2022/04/15 01:32:39;;;;;;;7.57;5.27;;;15.20;98.90;;;;;;5065957;28;20045;-76
2022/04/15 01:35:08;;;;;;;8.27;5.35;;;15.20;99.10;;;;;;5036624;28;20052;-76
2022/04/15 01:37:37;;;;;;;5.90;4.50;;;15.30;98.90;;;;;;5053045;28;20048;-75
2022/04/15 01:40:06;;;;;;;7.05;4.72;;;15.30;98.90;;;;;;5053056;28;20054;-76
2022/04/15 01:42:35;;;;;;;7.25;4.70;;;15.20;98.90;;;;;;5053121;28;20055;-75
2022/04/15 01:45:04;;;;;;;7.03;4.30;;;15.20;99.00;;;;;;5053127;28;20548;-76
2022/04/15 01:47:31;;;;;;;5.45;4.40;;;15.20;98.70;;;;;;5036200;28;20406;-75
2022/04/15 01:49:59;;;;;;;6.35;4.68;;;15.20;98.50;;;;;;5035744;28;20058;-75
2022/04/15 01:52:27;;;;;;;6.35;3.85;;;15.20;98.30;;;;;;5052752;28;20110;-76
2022/04/15 01:54:54;;;;;;;7.07;4.40;;;15.20;98.30;;;;;;5052789;28;20056;-75
2022/04/15 01:57:22;;;;;;;5.50;4.05;;;15.20;98.30;;;;;;5052482;28;20472;-76
2022/04/15 01:59:50;;;;;;;6.32;3.95;;;15.20;98.30;;;;;;5069256;28;20047;-77
2022/04/15 02:02:18;;;;;;;6.13;4.38;;;15.10;98.20;;;;;;5052577;28;20095;-76
2022/04/15 02:04:46;;;;;;;6.53;4.57;;;15.20;98.20;;;;;;5052178;28;20516;-75
2022/04/15 02:07:13;;;;;;;6.60;4.35;;;15.10;98.20;;;;;;5052601;28;20052;-76
2022/04/15 02:09:41;;;;;;;5.75;4.03;;;15.10;98.20;;;;;;5052492;28;20048;-77
2022/04/15 02:12:09;;;;;;;14.50;4.78;;;15.10;98.20;;;;;;5052565;28;20413;-76
2022/04/15 02:14:36;;;;;;;6.38;4.38;;;15.00;98.10;;;;;;5068873;28;20051;-76
2022/04/15 02:17:04;;;;;;;7.25;4.28;;;15.00;98.10;;;;;;5052720;28;20048;-75
2022/04/15 02:19:32;;;;;;;7.38;4.45;;;15.00;98.00;;;;;;5052453;28;20060;-76
2022/04/15 02:21:59;;;;;;;6.82;4.28;;;15.00;97.90;;;;;;5036331;28;20155;-75
2022/04/15 02:24:27;;;;;;;5.28;4.22;;;15.00;97.80;;;;;;5052880;28;20045;-76
2022/04/15 02:26:55;;;;;;;6.30;4.32;;;15.10;97.60;;;;;;5052717;28;20041;-75
2022/04/15 02:29:22;;;;;;;5.80;3.58;;;15.00;97.50;;;;;;5068966;28;20115;-76
2022/04/15 02:31:50;;;;;;;7.63;4.03;;;15.00;97.30;;;;;;5068613;28;20055;-77
2022/04/15 02:34:17;;;;;;;6.00;3.00;;;15.00;97.10;;;;;;5050150;28;20048;-76
2022/04/15 02:36:45;;;;;;;5.28;3.10;;;14.90;96.90;;;;;;5052080;28;20048;-76
2022/04/15 02:39:12;;;;;;;5.55;3.22;;;15.00;96.80;;;;;;5032505;28;20045;-77
2022/04/15 02:41:43;;;;;;;6.13;3.20;;;14.90;96.60;;;;;;5016080;28;20053;-76
2022/04/15 02:44:11;;;;;;;6.45;2.72;;;14.90;96.50;;;;;;5024434;28;20474;-77
2022/04/15 02:46:38;;;;;;;5.88;3.30;;;14.90;96.30;;;;;;5015450;28;20048;-76
2022/04/15 02:49:06;;;;;;;5.53;2.90;;;14.90;96.40;;;;;;5048839;28;20052;-76
2022/04/15 02:51:34;;;;;;;4.13;2.65;;;14.90;96.40;;;;;;5048241;28;20049;-76
2022/04/15 02:54:02;;;;;;;4.22;2.80;;;14.90;96.20;;;;;;5032762;28;20049;-76
2022/04/15 02:56:29;;;;;;;4.00;2.70;;;14.90;96.00;;;;;;5032162;28;20394;-76
2022/04/15 02:58:57;;;;;;;3.75;2.50;;;14.90;96.00;;;;;;5048537;28;20049;-76
2022/04/15 03:01:24;;;;;;;3.67;2.67;;;14.90;96.00;;;;;;5053235;28;20123;-75
2022/04/15 03:03:52;;;;;;;5.78;3.15;;;14.80;95.90;;;;;;5031578;28;20168;-75
2022/04/15 03:06:19;;;;;;;4.22;2.97;;;14.80;95.80;;;;;;5015499;28;20648;-76
2022/04/15 03:08:47;;;;;;;4.63;2.88;;;14.80;95.60;;;;;;5016094;28;20053;-76
2022/04/15 03:11:15;;;;;;;3.45;2.50;;;14.80;95.50;;;;;;5052282;28;20075;-75
2022/04/15 03:13:42;;;;;;;6.07;2.42;;;14.90;95.20;;;;;;5052544;28;20063;-75
2022/04/15 03:16:10;;;;;;;4.85;2.58;;;14.80;95.10;;;;;;5052259;28;20395;-76
2022/04/15 03:18:37;;;;;;;3.58;2.40;;;14.80;95.10;;;;;;5035792;28;20052;-76
2022/04/15 03:21:05;;;;;;;4.05;2.20;;;14.80;94.80;;;;;;5035626;28;20509;-76
2022/04/15 03:23:33;;;;;;;4.72;3.10;;;14.80;94.50;;;;;;5019111;28;20114;-76
2022/04/15 03:26:00;;;;;;;3.55;2.38;;;14.80;94.20;;;;;;5061494;28;20044;-76
2022/04/15 03:28:29;;;;;;;3.42;2.28;;;14.80;94.00;;;;;;5055591;28;20106;-75
2022/04/15 03:30:56;;;;;;;4.07;2.60;;;14.70;93.80;;;;;;5051304;28;20040;-75
2022/04/15 03:33:24;;;;;;;5.30;3.40;;;14.70;93.90;;;;;;5019129;28;20718;-76
2022/04/15 03:35:51;;;;;;;8.27;3.53;;;14.70;94.20;;;;;;5035255;28;20152;-76
2022/04/15 03:38:19;;;;;;;6.70;4.60;;;14.70;94.70;;;;;;5036170;28;20076;-76
2022/04/15 03:40:46;;;;;;;6.82;5.07;;;14.70;95.30;;;;;;5035428;28;20057;-76
2022/04/15 03:43:14;;;;;;;9.25;5.38;;;14.60;96.00;;;;;;5036031;28;20044;-76
2022/04/15 03:45:41;;;;;;;8.15;6.20;;;14.60;96.80;;;;;;5035291;28;20056;-76
2022/04/15 03:48:09;;;;;;;12.82;6.95;;;14.60;97.30;;;;;;5035464;28;20079;-76
2022/04/15 03:50:37;;;;;;;11.13;6.80;;;14.60;97.90;;;;;;5018170;28;20059;-76
2022/04/15 03:53:05;;;;;;;10.32;6.93;;;14.50;98.30;;;;;;5051423;28;20155;-76
2022/04/15 03:55:33;;;;;;;11.18;8.05;;;14.40;98.60;;;;;;5034661;28;20053;-78
2022/04/15 03:58:00;;;;;;;10.10;7.90;;;14.40;98.90;;;;;;5059144;28;20052;-77
2022/04/15 04:00:28;;;;;;;13.88;8.20;;;14.30;99.00;;;;;;5062952;28;20498;-76
2022/04/15 04:02:57;;;;;;;12.57;10.25;;;14.30;99.00;;;;;;5068578;28;20037;-77
2022/04/15 04:05:25;;;;;;;12.30;9.02;;;14.30;99.20;;;;;;5073140;28;20098;-77
2022/04/15 04:07:53;;;;;;;17.20;11.30;;;14.30;99.50;;;;;;5066037;28;20052;-77
2022/04/15 04:10:21;;;;;;;22.27;16.20;;;14.30;99.40;;;;;;5068238;28;20054;-77
2022/04/15 04:12:48;;;;;;;29.80;19.77;;;14.20;99.70;;;;;;5069814;28;20076;-78
2022/04/15 04:15:16;;;;;;;36.45;22.25;;;14.20;99.60;;;;;;5084933;28;20044;-77
2022/04/15 04:17:44;;;;;;;35.15;21.40;;;14.20;99.70;;;;;;5072063;28;20047;-78
2022/04/15 04:20:12;;;;;;;33.85;21.48;;;14.20;99.90;;;;;;5058380;28;20050;-76
2022/04/15 04:22:40;;;;;;;29.50;18.13;;;14.20;99.70;;;;;;5078931;28;20115;-75
2022/04/15 04:25:09;;;;;;;24.50;16.08;;;14.20;99.70;;;;;;5056788;28;20043;-77
2022/04/15 04:27:38;;;;;;;23.98;16.23;;;14.20;99.50;;;;;;5057522;28;20044;-76
2022/04/15 04:30:07;;;;;;;23.35;14.23;;;14.20;99.30;;;;;;5057287;28;20552;-76
2022/04/15 04:32:35;;;;;;;23.80;14.88;;;14.20;99.00;;;;;;5039951;28;20138;-76
2022/04/15 04:35:03;;;;;;;21.30;13.25;;;14.20;98.90;;;;;;5057096;28;20075;-75
2022/04/15 04:37:31;;;;;;;17.92;10.80;;;14.30;98.60;;;;;;5040655;28;20055;-77
2022/04/15 04:39:59;;;;;;;13.73;7.82;;;14.30;98.00;;;;;;5055983;28;20105;-76
2022/04/15 04:42:27;;;;;;;12.07;7.63;;;14.40;97.70;;;;;;5056686;28;20556;-75
2022/04/15 04:44:55;;;;;;;10.80;7.57;;;14.50;97.40;;;;;;5057491;28;20531;-76
2022/04/15 04:47:23;;;;;;;11.02;6.68;;;14.50;97.30;;;;;;5091457;28;20040;-76
2022/04/15 04:49:52;;;;;;;10.45;6.68;;;14.60;97.20;;;;;;5057336;28;20074;-76
2022/04/15 04:52:20;;;;;;;8.93;7.68;;;14.60;97.10;;;;;;5073591;28;20082;-75
2022/04/15 04:54:48;;;;;;;11.00;6.82;;;14.60;97.00;;;;;;5056940;28;20477;-75
2022/04/15 04:57:16;;;;;;;13.25;6.00;;;14.70;96.90;;;;;;5056540;28;20048;-75
2022/04/15 04:59:43;;;;;;;10.10;5.88;;;14.70;96.80;;;;;;5057008;28;20048;-75
2022/04/15 05:02:12;;;;;;;8.02;5.25;;;14.80;96.50;;;;;;5073142;28;20064;-75
2022/04/15 05:04:40;;;;;;;7.35;5.35;;;14.90;96.40;;;;;;5054771;28;20056;-75
2022/04/15 05:07:08;;;;;;;9.55;5.43;;;15.10;96.20;;;;;;5069030;28;20071;-75
2022/04/15 05:09:41;;;;;;;7.97;4.75;;;15.20;96.20;;;;;;5035960;28;20053;-76
2022/04/15 05:12:12;;;;;;;8.90;5.35;;;15.30;96.00;;;;;;5069812;28;20043;-75
2022/04/15 05:14:40;;;;;;;7.55;4.82;;;15.50;95.80;;;;;;5052705;28;20048;-75
2022/04/15 05:17:08;;;;;;;8.18;5.03;;;15.60;95.50;;;;;;5070823;28;20040;-75
2022/04/15 05:19:38;;;;;;;7.72;5.05;;;15.80;95.40;;;;;;5036984;28;20055;-75
2022/04/15 05:22:05;;;;;;;10.65;5.78;;;15.90;95.00;;;;;;5052922;28;20084;-74
2022/04/15 05:24:33;;;;;;;10.52;7.65;;;16.10;94.90;;;;;;5036107;28;20064;-75
2022/04/15 05:27:01;;;;;;;12.43;8.05;;;16.30;94.80;;;;;;5052882;28;20060;-76
2022/04/15 05:29:28;;;;;;;11.23;10.02;;;16.50;94.70;;;;;;5071001;28;20098;-75
2022/04/15 05:31:56;;;;;;;13.93;11.05;;;16.70;94.50;;;;;;5035453;28;20059;-75
2022/04/15 05:34:24;;;;;;;13.63;10.57;;;16.90;94.20;;;;;;5036184;28;20053;-74
2022/04/15 05:36:51;;;;;;;13.10;11.82;;;17.20;93.90;;;;;;5052715;28;20763;-74
2022/04/15 05:39:19;;;;;;;10.60;9.13;;;17.40;93.50;;;;;;5052878;28;20068;-74
2022/04/15 05:41:47;;;;;;;10.52;8.15;;;17.60;93.10;;;;;;5069005;28;20040;-74
2022/04/15 05:44:16;;;;;;;8.90;5.47;;;17.80;92.50;;;;;;5052509;28;20060;-74
2022/04/15 05:46:43;;;;;;;10.13;5.50;;;18.00;92.00;;;;;;5052254;28;20052;-75
2022/04/15 05:49:15;;;;;;;9.95;4.55;;;18.20;91.60;;;;;;5051595;28;20510;-74
2022/04/15 05:51:43;;;;;;;6.78;3.75;;;18.40;91.40;;;;;;5036488;28;20063;-74
2022/04/15 05:54:11;;;;;;;8.07;3.58;;;18.60;91.20;;;;;;5034780;28;20063;-74
2022/04/15 05:56:39;;;;;;;5.00;3.63;;;18.70;90.60;;;;;;5052316;28;20406;-75
2022/04/15 05:59:07;;;;;;;5.22;3.20;;;18.90;90.20;;;;;;5052218;28;20059;-74
2022/04/15 06:01:35;;;;;;;6.55;2.75;;;19.10;89.20;;;;;;5052338;28;20094;-74
2022/04/15 06:04:02;;;;;;;4.22;2.30;;;19.20;88.60;;;;;;5052275;28;20143;-75
2022/04/15 06:06:30;;;;;;;4.13;3.17;;;19.30;87.60;;;;;;5036159;28;20053;-75
2022/04/15 06:08:58;;;;;;;4.50;3.80;;;19.50;87.00;;;;;;5069451;28;20793;-74
2022/04/15 06:11:26;;;;;;;4.95;2.65;;;19.60;86.00;;;;;;5035442;28;20053;-76
2022/04/15 06:13:54;;;;;;;3.72;2.00;;;19.70;85.50;;;;;;5052057;28;20040;-74
2022/04/15 06:16:22;;;;;;;3.15;2.13;;;19.80;84.10;;;;;;5035779;28;20102;-74
2022/04/15 06:18:50;;;;;;;4.30;2.28;;;20.00;84.10;;;;;;5052448;28;20097;-76
2022/04/15 06:21:34;;;;;;;6.60;2.53;;;20.10;84.60;;;;;;5035521;28;20055;-74
2022/04/15 06:24:01;;;;;;;4.20;2.47;;;20.20;85.00;;;;;;5051993;28;20047;-74
2022/04/15 06:26:29;;;;;;;3.63;2.20;;;20.40;82.90;;;;;;5051965;28;20036;-82
2022/04/15 06:28:57;;;;;;;8.43;2.25;;;20.50;82.70;;;;;;5035201;28;20109;-76
2022/04/15 06:31:25;;;;;;;4.38;2.05;;;20.60;82.40;;;;;;5036015;28;20056;-74
2022/04/15 06:33:53;;;;;;;4.43;2.35;;;20.70;82.20;;;;;;5035158;28;20048;-75
2022/04/15 06:36:21;;;;;;;3.63;1.80;;;20.80;81.30;;;;;;5069025;28;20049;-74
2022/04/15 06:38:48;;;;;;;4.28;2.30;;;20.90;81.50;;;;;;5068594;28;20427;-75
2022/04/15 06:41:16;;;;;;;5.32;2.40;;;21.10;81.40;;;;;;5051797;28;20514;-74
2022/04/15 06:43:44;;;;;;;5.13;3.55;;;21.20;80.80;;;;;;5051751;28;20043;-75
2022/04/15 06:46:11;;;;;;;4.32;2.15;;;21.30;80.70;;;;;;5039389;28;20458;-75
2022/04/15 06:48:39;;;;;;;6.55;2.92;;;21.30;78.80;;;;;;5055214;28;20417;-74
2022/04/15 06:51:07;;;;;;;3.10;2.35;;;21.40;78.50;;;;;;5055292;28;20044;-74
2022/04/15 06:53:34;;;;;;;4.65;2.65;;;21.50;79.20;;;;;;5024124;28;20194;-74
2022/04/15 06:56:02;;;;;;;6.97;2.25;;;21.50;79.60;;;;;;5055744;28;20445;-75
2022/04/15 06:58:30;;;;;;;5.45;2.75;;;21.70;79.40;;;;;;5037859;28;20044;-75
2022/04/15 07:00:57;;;;;;;3.80;2.13;;;21.80;79.00;;;;;;5022361;28;20045;-75
2022/04/15 07:03:25;;;;;;;4.63;3.03;;;21.90;78.40;;;;;;5055630;28;20511;-74
2022/04/15 07:05:53;;;;;;;7.00;2.83;;;22.00;78.00;;;;;;5038840;28;20418;-75
2022/04/15 07:08:21;;;;;;;4.22;3.05;;;22.10;78.10;;;;;;5038765;28;20049;-74
2022/04/15 07:10:48;;;;;;;4.53;2.80;;;22.20;77.30;;;;;;5038599;28;20044;-75
2022/04/15 07:13:16;;;;;;;5.03;4.07;;;22.20;77.50;;;;;;5038637;28;20048;-75
2022/04/15 07:15:43;;;;;;;5.05;3.13;;;22.30;78.20;;;;;;5038573;28;20037;-74
2022/04/15 07:18:12;;;;;;;5.75;3.45;;;22.40;78.20;;;;;;5038831;28;20087;-74
2022/04/15 07:20:40;;;;;;;6.05;3.20;;;22.50;77.80;;;;;;5054581;28;20507;-75
2022/04/15 07:23:08;;;;;;;4.03;2.50;;;22.60;77.40;;;;;;5038212;28;20082;-75
2022/04/15 07:25:35;;;;;;;3.95;2.63;;;22.70;77.30;;;;;;5037942;28;20056;-75
2022/04/15 07:28:03;;;;;;;3.60;2.10;;;22.80;77.50;;;;;;5055368;28;20041;-74
2022/04/15 07:30:31;;;;;;;6.97;2.20;;;22.80;77.40;;;;;;5038525;28;20584;-74
2022/04/15 07:33:00;;;;;;;3.17;1.83;;;23.00;77.50;;;;;;5038478;28;20052;-75
2022/04/15 07:35:27;;;;;;;5.55;2.55;;;23.00;76.40;;;;;;5021688;28;20049;-76
2022/04/15 07:37:55;;;;;;;2.95;2.05;;;23.00;76.80;;;;;;5038179;28;20044;-74
2022/04/15 07:40:27;;;;;;;6.07;3.22;;;23.10;77.80;;;;;;5055010;28;20402;-76
2022/04/15 07:42:57;;;;;;;3.08;2.10;;;23.00;76.90;;;;;;5036972;28;20509;-75
2022/04/15 07:45:25;;;;;;;4.55;2.20;;;23.00;76.50;;;;;;5092835;28;20048;-77
2022/04/15 07:47:52;;;;;;;3.63;1.75;;;22.80;76.80;;;;;;5057916;28;20402;-75
2022/04/15 07:50:25;;;;;;;4.20;1.90;;;22.80;77.00;;;;;;5074424;28;20062;-74
2022/04/15 07:53:00;;;;;;;3.67;2.22;;;22.80;76.90;;;;;;5074381;28;20101;-75
2022/04/15 07:55:28;;;;;;;5.93;2.35;;;22.80;77.10;;;;;;5074205;28;20047;-75
2022/04/15 07:57:55;;;;;;;4.40;2.65;;;22.80;76.40;;;;;;5058220;28;20055;-74
2022/04/15 08:00:23;;;;;;;3.80;2.35;;;22.80;75.90;;;;;;5041501;28;20051;-75
2022/04/15 08:02:51;;;;;;;4.53;2.33;;;22.80;75.30;;;;;;5091645;28;20554;-75
2022/04/15 08:05:19;;;;;;;3.38;1.95;;;22.80;75.50;;;;;;5057472;28;20056;-76
2022/04/15 08:07:47;;;;;;;2.85;2.00;;;22.80;75.70;;;;;;5057465;28;20071;-75
2022/04/15 08:10:15;;;;;;;2.80;2.25;;;22.80;75.90;;;;;;5057944;28;20599;-75
2022/04/15 08:12:43;;;;;;;4.65;2.58;;;22.80;76.30;;;;;;5074077;28;20044;-76
2022/04/15 08:15:10;;;;;;;3.85;2.58;;;22.70;76.50;;;;;;5041668;28;20052;-75
2022/04/15 08:17:38;;;;;;;4.63;2.20;;;22.70;77.40;;;;;;5040864;28;20048;-75
2022/04/15 08:20:06;;;;;;;3.88;2.20;;;22.60;78.40;;;;;;5057642;28;20060;-77
2022/04/15 08:22:35;;;;;;;4.28;2.20;;;22.50;77.80;;;;;;5073681;28;20036;-75
2022/04/15 08:25:06;;;;;;;3.28;1.85;;;22.60;78.90;;;;;;5040601;28;20083;-75
2022/04/15 08:27:34;;;;;;;4.82;2.50;;;22.40;78.70;;;;;;5057351;28;20502;-75
2022/04/15 08:30:03;;;;;;;4.22;1.75;;;22.30;79.20;;;;;;5057407;28;20044;-76
2022/04/15 08:32:34;;;;;;;5.13;2.45;;;22.30;79.60;;;;;;5073613;28;20456;-75
2022/04/15 08:35:07;;;;;;;3.53;2.20;;;22.20;80.30;;;;;;5038908;28;20048;-75
2022/04/15 08:37:35;;;;;;;3.65;1.73;;;22.10;80.10;;;;;;5019907;28;20072;-74
2022/04/15 08:40:03;;;;;;;4.10;2.10;;;22.10;80.10;;;;;;5019697;28;20063;-78
2022/04/15 08:42:32;;;;;;;6.63;3.05;;;22.00;80.50;;;;;;5052983;28;20051;-75
2022/04/15 08:45:01;;;;;;;3.78;2.25;;;22.00;80.00;;;;;;5020148;28;20118;-75
2022/04/15 08:47:30;;;;;;;3.92;2.10;;;22.20;81.00;;;;;;5053360;28;20055;-78
2022/04/15 08:49:59;;;;;;;3.65;2.05;;;22.20;81.20;;;;;;5053406;28;20052;-74
2022/04/15 08:52:28;;;;;;;4.95;2.53;;;22.30;82.00;;;;;;5036413;28;20068;-74
2022/04/15 08:54:55;;;;;;;3.45;2.28;;;22.50;82.60;;;;;;5036521;28;20093;-76
2022/04/15 08:57:23;;;;;;;3.38;2.50;;;22.50;82.40;;;;;;5036871;28;20202;-74
2022/04/15 08:59:53;;;;;;;4.53;2.58;;;22.60;82.70;;;;;;5019556;28;20494;-73
2022/04/15 09:02:39;;;;;;;5.72;2.50;;;22.70;82.20;;;;;;5036948;28;20121;-71
2022/04/15 09:05:10;;;;;;;3.47;2.00;;;22.70;81.90;;;;;;5036656;28;20147;-71
2022/04/15 09:07:39;;;;;;;3.35;2.10;;;22.80;82.60;;;;;;5069688;28;20041;-72
2022/04/15 09:10:10;;;;;;;3.78;2.42;;;22.80;81.90;;;;;;5053334;28;20044;-71
2022/04/15 09:12:40;;;;;;;3.53;2.28;;;22.90;81.60;;;;;;5036193;28;20071;-71
2022/04/15 09:15:07;;;;;;;3.78;1.95;;;22.90;81.80;;;;;;5053185;28;20044;-73
2022/04/15 09:17:46;;;;;;;4.28;3.08;;;23.00;82.00;;;;;;5053559;28;20076;-69
2022/04/15 09:20:14;;;;;;;5.80;2.42;;;23.00;81.70;;;;;;5070489;28;20075;-71
2022/04/15 09:22:42;;;;;;;5.15;2.53;;;23.10;82.10;;;;;;5036003;28;20071;-71
2022/04/15 09:25:11;;;;;;;5.13;2.45;;;23.20;82.20;;;;;;5036251;28;20075;-73
2022/04/15 09:27:39;;;;;;;4.57;2.10;;;23.30;81.00;;;;;;5036422;28;20577;-71
2022/04/15 09:30:07;;;;;;;5.00;2.38;;;23.30;80.30;;;;;;5066780;28;20055;-71
2022/04/15 09:32:38;;;;;;;6.25;2.20;;;23.30;79.70;;;;;;5052594;28;20151;-72
2022/04/15 09:35:08;;;;;;;4.30;2.00;;;23.10;79.50;;;;;;5036259;28;20041;-72
2022/04/15 09:37:42;;;;;;;2.95;1.90;;;23.20;80.20;;;;;;5052812;28;20044;-73
2022/04/15 09:40:26;;;;;;;4.45;1.90;;;23.40;81.40;;;;;;5052456;28;20561;-71
2022/04/15 09:42:58;;;;;;;3.95;2.20;;;23.40;78.00;;;;;;5070281;28;20130;-72
2022/04/15 09:45:31;;;;;;;3.13;1.73;;;23.50;77.10;;;;;;5036056;28;20045;-70
2022/04/15 09:48:08;;;;;;;4.45;1.80;;;23.60;77.80;;;;;;5035470;28;20052;-69
2022/04/15 09:50:42;;;;;;;2.83;1.88;;;23.50;78.10;;;;;;5069904;28;20051;-70
2022/04/15 09:53:16;;;;;;;3.83;1.85;;;23.50;78.20;;;;;;5052534;28;20048;-70
2022/04/15 09:55:46;;;;;;;3.58;2.28;;;23.60;78.70;;;;;;5052923;28;20048;-70
2022/04/15 09:58:16;;;;;;;7.05;2.50;;;23.60;76.50;;;;;;5070111;28;20072;-69
2022/04/15 10:00:49;;;;;;;13.40;2.80;;;23.60;74.70;;;;;;5052651;28;20040;-71
2022/04/15 10:03:23;;;;;;;7.80;2.40;;;23.60;77.90;;;;;;5035583;28;20150;-70
2022/04/15 10:05:54;;;;;;;2.47;1.48;;;23.60;76.90;;;;;;5069944;28;20147;-70
2022/04/15 10:08:24;;;;;;;2.80;1.55;;;23.60;76.50;;;;;;5035702;28;20143;-70
2022/04/15 10:10:54;;;;;;;3.50;1.75;;;23.60;73.30;;;;;;5051774;28;20499;-69
2022/04/15 10:13:26;;;;;;;3.53;1.58;;;23.60;74.40;;;;;;5034320;28;20110;-70
2022/04/15 10:15:55;;;;;;;4.15;1.60;;;23.50;73.80;;;;;;5047100;28;20048;-72
2022/04/15 10:18:23;;;;;;;3.40;1.75;;;23.50;77.30;;;;;;5052931;28;20045;-70
2022/04/15 10:20:51;;;;;;;2.33;1.48;;;23.70;77.10;;;;;;5039176;28;20054;-71
2022/04/15 10:23:21;;;;;;;2.47;1.80;;;23.60;74.40;;;;;;5039575;28;20052;-69
2022/04/15 10:25:51;;;;;;;3.22;1.70;;;23.70;75.80;;;;;;5056175;28;20090;-71
2022/04/15 10:28:46;;;;;;;5.60;2.10;;;23.70;72.10;;;;;;5038960;28;20041;-72
2022/04/15 10:31:17;;;;;;;3.05;1.55;;;23.80;73.00;;;;;;5055899;28;20067;-72
2022/04/15 10:33:49;;;;;;;2.30;1.40;;;23.70;74.20;;;;;;5055712;28;20483;-71
2022/04/15 10:36:22;;;;;;;5.50;1.58;;;23.80;74.50;;;;;;5039376;28;20064;-71
2022/04/15 10:39:06;;;;;;;3.30;1.60;;;23.60;73.10;;;;;;5073305;28;20051;-73
2022/04/15 10:41:43;;;;;;;2.83;1.50;;;23.40;71.80;;;;;;5039049;28;20059;-71
2022/04/15 10:44:11;;;;;;;2.85;1.60;;;23.40;70.20;;;;;;5039091;28;20059;-72
2022/04/15 10:46:40;;;;;;;2.03;1.33;;;23.50;69.40;;;;;;5055697;28;20102;-70
2022/04/15 10:49:34;;;;;;;2.22;1.40;;;23.30;71.50;;;;;;5055558;28;20483;-71
2022/04/15 10:52:03;;;;;;;4.72;1.90;;;23.30;72.70;;;;;;5037601;28;20417;-71
2022/04/15 10:54:36;;;;;;;3.55;2.00;;;23.30;72.60;;;;;;5038856;28;20048;-71
2022/04/15 10:57:14;;;;;;;2.65;1.58;;;23.40;71.70;;;;;;5022867;28;20057;-70
2022/04/15 11:02:50;;;;;;;3.22;1.67;;;23.30;71.20;;;;;;5055180;28;20429;-69
2022/04/15 11:05:42;;;;;;;3.00;1.40;;;23.30;71.40;;;;;;5054963;28;20143;-70
2022/04/15 11:08:15;;;;;;;2.83;1.40;;;23.30;71.90;;;;;;5056218;28;20133;-71
2022/04/15 11:11:07;;;;;;;2.88;1.60;;;23.40;72.20;;;;;;5022220;28;20040;-72
2022/04/15 11:13:42;;;;;;;1.77;1.27;;;23.40;71.40;;;;;;5040396;28;20398;-70
2022/04/15 11:16:13;;;;;;;1.80;1.35;;;23.30;70.00;;;;;;5038179;28;20048;-71
2022/04/15 11:18:50;;;;;;;5.10;1.60;;;23.30;70.60;;;;;;5038559;28;20074;-71
2022/04/15 11:21:41;;;;;;;1.85;1.30;;;23.30;70.70;;;;;;5054442;28;20078;-73
2022/04/15 11:24:12;;;;;;;2.75;1.58;;;23.30;70.80;;;;;;5071246;28;20445;-72
2022/04/15 11:26:43;;;;;;;4.15;1.80;;;23.20;71.60;;;;;;5054779;28;20040;-72
2022/04/15 11:29:12;;;;;;;1.75;1.20;;;23.20;71.70;;;;;;5037857;28;20052;-72
2022/04/15 11:31:49;;;;;;;3.05;2.13;;;23.20;72.00;;;;;;5071771;28;20056;-72
2022/04/15 11:34:18;;;;;;;3.33;1.40;;;23.20;72.30;;;;;;5071426;28;20044;-71
2022/04/15 11:36:53;;;;;;;3.38;1.83;;;23.10;72.80;;;;;;5020958;28;20049;-72
2022/04/15 11:39:23;;;;;;;3.28;1.42;;;23.00;73.20;;;;;;5037745;28;20037;-73
2022/04/15 11:41:59;;;;;;;3.28;1.83;;;23.00;73.10;;;;;;5054238;28;20051;-72
2022/04/15 11:44:31;;;;;;;3.58;1.55;;;23.10;72.70;;;;;;5021218;28;20055;-72
2022/04/15 11:47:16;;;;;;;3.22;1.60;;;23.10;72.20;;;;;;5071810;28;20045;-72
2022/04/15 11:49:45;;;;;;;6.13;2.22;;;23.00;71.40;;;;;;5053529;28;20040;-74
2022/04/15 11:52:21;;;;;;;2.38;1.50;;;22.90;71.70;;;;;;5037485;28;20151;-71
2022/04/15 11:54:50;;;;;;;5.38;1.63;;;22.80;72.30;;;;;;5071659;28;20574;-72
2022/04/15 11:57:17;;;;;;;2.55;1.58;;;22.70;74.20;;;;;;5037410;28;20114;-72
2022/04/15 11:59:46;;;;;;;2.58;1.42;;;22.50;75.00;;;;;;5037431;28;20399;-71
2022/04/15 12:02:18;;;;;;;3.05;1.85;;;22.40;75.80;;;;;;5053782;28;20052;-75
2022/04/15 12:04:53;;;;;;;2.65;1.70;;;22.20;76.60;;;;;;5045557;28;20066;-73
2022/04/15 12:07:23;;;;;;;3.40;1.63;;;22.30;76.90;;;;;;5050431;28;20387;-73
2022/04/15 12:09:53;;;;;;;3.20;1.67;;;22.30;76.80;;;;;;5017075;28;20041;-73
2022/04/15 12:12:23;;;;;;;3.78;1.60;;;22.30;76.70;;;;;;5050178;28;20059;-72
2022/04/15 12:14:53;;;;;;;2.67;1.40;;;22.30;76.60;;;;;;5049734;28;20143;-73
2022/04/15 12:17:22;;;;;;;2.65;1.58;;;22.30;76.70;;;;;;5050407;28;20087;-72
2022/04/15 12:19:50;;;;;;;5.75;2.10;;;22.30;77.00;;;;;;5050383;28;20131;-73
2022/04/15 12:22:19;;;;;;;5.50;1.80;;;22.30;76.80;;;;;;5050015;28;20045;-71
2022/04/15 12:24:47;;;;;;;2.47;1.77;;;22.20;77.30;;;;;;5033128;28;20159;-72
2022/04/15 12:27:17;;;;;;;2.35;1.55;;;22.20;77.60;;;;;;5049921;28;20061;-72
2022/04/15 12:29:47;;;;;;;2.85;1.27;;;22.20;77.30;;;;;;5050048;28;20233;-73
2022/04/15 12:32:34;;;;;;;3.60;1.65;;;22.20;77.30;;;;;;5033195;28;20053;-74
2022/04/15 12:35:01;;;;;;;3.22;1.83;;;22.00;77.30;;;;;;5050627;28;20421;-73
2022/04/15 12:37:37;;;;;;;4.78;1.95;;;22.00;77.50;;;;;;5050909;28;20049;-72
2022/04/15 12:40:14;;;;;;;2.03;1.73;;;22.00;78.10;;;;;;5016538;28;20056;-71
2022/04/15 12:42:44;;;;;;;4.05;2.15;;;22.00;78.50;;;;;;5048451;28;20279;-72
2022/04/15 12:45:17;;;;;;;4.22;2.33;;;22.00;78.80;;;;;;5050679;28;20048;-73
2022/04/15 12:48:05;;;;;;;3.42;1.85;;;22.00;79.20;;;;;;5049817;28;20513;-72
2022/04/15 12:50:35;;;;;;;27.33;2.15;;;22.00;78.90;;;;;;5064602;28;20045;-72
2022/04/15 12:53:13;;;;;;;3.90;1.77;;;22.10;78.30;;;;;;5070549;28;20044;-71
2022/04/15 12:55:41;;;;;;;3.65;1.48;;;22.10;75.70;;;;;;5036975;28;20049;-71
2022/04/15 12:58:25;;;;;;;3.67;1.73;;;22.10;75.90;;;;;;5033605;28;20051;-71
2022/04/15 13:00:58;;;;;;;4.28;1.77;;;22.10;75.80;;;;;;5033414;28;20068;-70
2022/04/15 13:03:35;;;;;;;5.47;2.05;;;22.10;76.00;;;;;;5049275;28;20565;-71